sensor_id;sensor_type;location;lat;lon;timestamp;P1;durP1;ratioP1;P2;durP2;ratioP2
1679;SDS011;838;51.794;12.258;2023-04-25T00:01:25;5.70;;;4.90;;
1679;SDS011;838;51.794;12.258;2023-04-25T00:03:51;5.63;;;4.13;;
1679;SDS011;838;51.794;12.258;2023-04-25T00:06:17;6.10;;;4.20;;
1679;SDS011;838;51.794;12.258;2023-04-25T00:08:43;7.23;;;4.33;;
1679;SDS011;838;51.794;12.258;2023-04-25T00:11:09;4.63;;;4.10;;
1679;SDS011;838;51.794;12.258;2023-04-25T00:13:35;7.60;;;4.37;;
1679;SDS011;838;51.794;12.258;2023-04-25T00:16:01;5.27;;;4.03;;
1679;SDS011;838;51.794;12.258;2023-04-25T00:18:27;6.23;;;4.43;;
1679;SDS011;838;51.794;12.258;2023-04-25T00:20:54;6.00;;;4.20;;
1679;SDS011;838;51.794;12.258;2023-04-25T00:23:20;4.93;;;4.00;;
1679;SDS011;838;51.794;12.258;2023-04-25T00:25:47;6.20;;;4.70;;
1679;SDS011;838;51.794;12.258;2023-04-25T00:28:14;5.43;;;4.43;;
1679;SDS011;838;51.794;12.258;2023-04-25T00:30:40;6.20;;;4.50;;
1679;SDS011;838;51.794;12.258;2023-04-25T00:33:06;4.87;;;4.37;;
1679;SDS011;838;51.794;12.258;2023-04-25T00:35:32;7.83;;;4.40;;
1679;SDS011;838;51.794;12.258;2023-04-25T00:37:59;4.77;;;4.27;;
1679;SDS011;838;51.794;12.258;2023-04-25T00:40:25;6.27;;;4.60;;
1679;SDS011;838;51.794;12.258;2023-04-25T00:42:51;9.80;;;5.10;;
1679;SDS011;838;51.794;12.258;2023-04-25T00:45:18;5.97;;;4.77;;
1679;SDS011;838;51.794;12.258;2023-04-25T00:47:44;5.73;;;4.53;;
1679;SDS011;838;51.794;12.258;2023-04-25T00:50:11;6.20;;;4.50;;
1679;SDS011;838;51.794;12.258;2023-04-25T00:52:41;7.50;;;4.70;;
1679;SDS011;838;51.794;12.258;2023-04-25T00:55:09;5.27;;;4.53;;
1679;SDS011;838;51.794;12.258;2023-04-25T00:57:36;6.53;;;4.90;;
1679;SDS011;838;51.794;12.258;2023-04-25T01:00:06;5.70;;;4.37;;
1679;SDS011;838;51.794;12.258;2023-04-25T01:02:34;10.23;;;5.00;;
1679;SDS011;838;51.794;12.258;2023-04-25T01:05:01;6.43;;;4.37;;
1679;SDS011;838;51.794;12.258;2023-04-25T01:07:27;6.03;;;4.33;;
1679;SDS011;838;51.794;12.258;2023-04-25T01:09:53;5.90;;;4.23;;
1679;SDS011;838;51.794;12.258;2023-04-25T01:12:19;6.70;;;4.63;;
1679;SDS011;838;51.794;12.258;2023-04-25T01:14:45;5.67;;;4.67;;
1679;SDS011;838;51.794;12.258;2023-04-25T01:17:12;5.60;;;4.40;;
1679;SDS011;838;51.794;12.258;2023-04-25T01:19:38;6.13;;;4.70;;
1679;SDS011;838;51.794;12.258;2023-04-25T01:22:04;5.77;;;4.13;;
1679;SDS011;838;51.794;12.258;2023-04-25T01:24:33;5.40;;;4.77;;
1679;SDS011;838;51.794;12.258;2023-04-25T01:26:59;6.37;;;4.23;;
1679;SDS011;838;51.794;12.258;2023-04-25T01:29:26;5.97;;;4.37;;
1679;SDS011;838;51.794;12.258;2023-04-25T01:31:53;6.07;;;4.73;;
1679;SDS011;838;51.794;12.258;2023-04-25T01:34:19;6.77;;;4.23;;
1679;SDS011;838;51.794;12.258;2023-04-25T01:36:45;6.50;;;4.90;;
1679;SDS011;838;51.794;12.258;2023-04-25T01:39:13;6.27;;;4.40;;
1679;SDS011;838;51.794;12.258;2023-04-25T01:41:40;8.07;;;4.83;;
1679;SDS011;838;51.794;12.258;2023-04-25T01:44:06;6.37;;;4.40;;
1679;SDS011;838;51.794;12.258;2023-04-25T01:46:32;7.83;;;4.70;;
1679;SDS011;838;51.794;12.258;2023-04-25T01:48:58;11.00;;;4.50;;
1679;SDS011;838;51.794;12.258;2023-04-25T01:51:24;7.47;;;4.87;;
1679;SDS011;838;51.794;12.258;2023-04-25T01:53:50;5.10;;;4.40;;
1679;SDS011;838;51.794;12.258;2023-04-25T01:56:17;6.80;;;4.33;;
1679;SDS011;838;51.794;12.258;2023-04-25T01:58:43;7.37;;;4.77;;
1679;SDS011;838;51.794;12.258;2023-04-25T02:01:09;5.70;;;4.60;;
1679;SDS011;838;51.794;12.258;2023-04-25T02:03:35;8.30;;;4.73;;
1679;SDS011;838;51.794;12.258;2023-04-25T02:06:01;5.70;;;4.97;;
1679;SDS011;838;51.794;12.258;2023-04-25T02:08:27;5.87;;;4.73;;
1679;SDS011;838;51.794;12.258;2023-04-25T02:10:53;5.23;;;4.30;;
1679;SDS011;838;51.794;12.258;2023-04-25T02:13:19;7.53;;;4.47;;
1679;SDS011;838;51.794;12.258;2023-04-25T02:15:45;7.40;;;4.50;;
1679;SDS011;838;51.794;12.258;2023-04-25T02:18:10;8.97;;;4.53;;
1679;SDS011;838;51.794;12.258;2023-04-25T02:20:36;5.10;;;4.60;;
1679;SDS011;838;51.794;12.258;2023-04-25T02:23:02;5.60;;;4.70;;
1679;SDS011;838;51.794;12.258;2023-04-25T02:25:28;8.57;;;4.53;;
1679;SDS011;838;51.794;12.258;2023-04-25T02:27:54;7.53;;;4.80;;
1679;SDS011;838;51.794;12.258;2023-04-25T02:30:19;7.80;;;5.07;;
1679;SDS011;838;51.794;12.258;2023-04-25T02:32:45;8.03;;;4.43;;
1679;SDS011;838;51.794;12.258;2023-04-25T02:35:11;7.70;;;4.50;;
1679;SDS011;838;51.794;12.258;2023-04-25T02:37:37;5.87;;;4.60;;
1679;SDS011;838;51.794;12.258;2023-04-25T02:40:04;8.77;;;5.00;;
1679;SDS011;838;51.794;12.258;2023-04-25T02:42:31;5.47;;;4.30;;
1679;SDS011;838;51.794;12.258;2023-04-25T02:44:56;6.40;;;4.67;;
1679;SDS011;838;51.794;12.258;2023-04-25T02:47:22;6.53;;;4.83;;
1679;SDS011;838;51.794;12.258;2023-04-25T02:49:48;6.13;;;4.07;;
1679;SDS011;838;51.794;12.258;2023-04-25T02:52:14;6.40;;;4.40;;
1679;SDS011;838;51.794;12.258;2023-04-25T02:54:40;9.20;;;4.70;;
1679;SDS011;838;51.794;12.258;2023-04-25T02:57:06;6.13;;;4.17;;
1679;SDS011;838;51.794;12.258;2023-04-25T02:59:32;6.30;;;4.40;;
1679;SDS011;838;51.794;12.258;2023-04-25T03:01:58;7.80;;;5.03;;
1679;SDS011;838;51.794;12.258;2023-04-25T03:04:24;11.27;;;5.70;;
1679;SDS011;838;51.794;12.258;2023-04-25T03:06:50;7.50;;;5.20;;
1679;SDS011;838;51.794;12.258;2023-04-25T03:09:16;6.37;;;4.90;;
1679;SDS011;838;51.794;12.258;2023-04-25T03:11:43;7.40;;;4.50;;
1679;SDS011;838;51.794;12.258;2023-04-25T03:14:09;13.37;;;4.47;;
1679;SDS011;838;51.794;12.258;2023-04-25T03:16:36;8.90;;;5.20;;
1679;SDS011;838;51.794;12.258;2023-04-25T03:19:02;9.20;;;5.20;;
1679;SDS011;838;51.794;12.258;2023-04-25T03:21:28;6.20;;;4.50;;
1679;SDS011;838;51.794;12.258;2023-04-25T03:23:56;5.03;;;4.53;;
1679;SDS011;838;51.794;12.258;2023-04-25T03:26:23;5.53;;;3.90;;
1679;SDS011;838;51.794;12.258;2023-04-25T03:28:48;7.90;;;4.50;;
1679;SDS011;838;51.794;12.258;2023-04-25T03:31:14;8.70;;;4.70;;
1679;SDS011;838;51.794;12.258;2023-04-25T03:33:40;5.40;;;4.17;;
1679;SDS011;838;51.794;12.258;2023-04-25T03:36:06;7.17;;;3.83;;
1679;SDS011;838;51.794;12.258;2023-04-25T03:38:32;8.03;;;5.00;;
1679;SDS011;838;51.794;12.258;2023-04-25T03:40:57;8.30;;;4.60;;
1679;SDS011;838;51.794;12.258;2023-04-25T03:43:23;8.10;;;4.27;;
1679;SDS011;838;51.794;12.258;2023-04-25T03:45:49;7.43;;;3.90;;
1679;SDS011;838;51.794;12.258;2023-04-25T03:48:15;8.30;;;4.50;;
1679;SDS011;838;51.794;12.258;2023-04-25T03:50:41;7.43;;;4.90;;
1679;SDS011;838;51.794;12.258;2023-04-25T03:53:07;6.57;;;4.40;;
1679;SDS011;838;51.794;12.258;2023-04-25T03:55:32;7.67;;;4.77;;
1679;SDS011;838;51.794;12.258;2023-04-25T03:57:58;5.80;;;4.43;;
1679;SDS011;838;51.794;12.258;2023-04-25T04:00:24;5.67;;;4.33;;
1679;SDS011;838;51.794;12.258;2023-04-25T04:02:50;5.60;;;3.90;;
1679;SDS011;838;51.794;12.258;2023-04-25T04:05:16;7.97;;;5.17;;
1679;SDS011;838;51.794;12.258;2023-04-25T04:07:42;8.53;;;4.70;;
1679;SDS011;838;51.794;12.258;2023-04-25T04:10:11;6.30;;;4.63;;
1679;SDS011;838;51.794;12.258;2023-04-25T04:12:37;8.73;;;5.30;;
1679;SDS011;838;51.794;12.258;2023-04-25T04:15:04;11.17;;;4.17;;
1679;SDS011;838;51.794;12.258;2023-04-25T04:17:32;7.47;;;4.37;;
1679;SDS011;838;51.794;12.258;2023-04-25T04:19:59;12.83;;;5.83;;
1679;SDS011;838;51.794;12.258;2023-04-25T04:22:25;5.23;;;4.03;;
1679;SDS011;838;51.794;12.258;2023-04-25T04:24:51;7.10;;;5.27;;
1679;SDS011;838;51.794;12.258;2023-04-25T04:27:17;8.33;;;4.63;;
1679;SDS011;838;51.794;12.258;2023-04-25T04:29:44;10.40;;;5.43;;
1679;SDS011;838;51.794;12.258;2023-04-25T04:32:10;6.30;;;4.13;;
1679;SDS011;838;51.794;12.258;2023-04-25T04:34:37;10.33;;;5.10;;
1679;SDS011;838;51.794;12.258;2023-04-25T04:37:04;10.57;;;5.37;;
1679;SDS011;838;51.794;12.258;2023-04-25T04:39:32;8.57;;;4.70;;
1679;SDS011;838;51.794;12.258;2023-04-25T04:41:58;6.90;;;4.50;;
1679;SDS011;838;51.794;12.258;2023-04-25T04:44:26;8.43;;;4.97;;
1679;SDS011;838;51.794;12.258;2023-04-25T04:46:53;8.50;;;5.90;;
1679;SDS011;838;51.794;12.258;2023-04-25T04:49:19;8.00;;;4.60;;
1679;SDS011;838;51.794;12.258;2023-04-25T04:51:46;8.40;;;4.60;;
1679;SDS011;838;51.794;12.258;2023-04-25T04:54:12;6.70;;;4.40;;
1679;SDS011;838;51.794;12.258;2023-04-25T04:56:38;6.80;;;4.37;;
1679;SDS011;838;51.794;12.258;2023-04-25T04:59:04;7.87;;;4.47;;
1679;SDS011;838;51.794;12.258;2023-04-25T05:01:30;8.00;;;5.20;;
1679;SDS011;838;51.794;12.258;2023-04-25T05:03:56;8.60;;;5.20;;
1679;SDS011;838;51.794;12.258;2023-04-25T05:06:25;10.60;;;5.23;;
1679;SDS011;838;51.794;12.258;2023-04-25T05:08:52;6.60;;;4.30;;
1679;SDS011;838;51.794;12.258;2023-04-25T05:11:18;7.33;;;4.40;;
1679;SDS011;838;51.794;12.258;2023-04-25T05:13:44;6.67;;;4.47;;
1679;SDS011;838;51.794;12.258;2023-04-25T05:16:10;5.70;;;4.40;;
1679;SDS011;838;51.794;12.258;2023-04-25T05:18:37;10.47;;;4.23;;
1679;SDS011;838;51.794;12.258;2023-04-25T05:21:03;9.27;;;5.50;;
1679;SDS011;838;51.794;12.258;2023-04-25T05:23:30;7.97;;;4.43;;
1679;SDS011;838;51.794;12.258;2023-04-25T05:25:57;8.17;;;4.60;;
1679;SDS011;838;51.794;12.258;2023-04-25T05:28:23;6.03;;;3.70;;
1679;SDS011;838;51.794;12.258;2023-04-25T05:30:48;7.90;;;4.57;;
1679;SDS011;838;51.794;12.258;2023-04-25T05:33:15;6.90;;;4.13;;
1679;SDS011;838;51.794;12.258;2023-04-25T05:35:41;7.37;;;4.33;;
1679;SDS011;838;51.794;12.258;2023-04-25T05:38:07;8.00;;;4.30;;
1679;SDS011;838;51.794;12.258;2023-04-25T05:40:32;7.30;;;3.80;;
1679;SDS011;838;51.794;12.258;2023-04-25T05:42:58;7.43;;;3.87;;
1679;SDS011;838;51.794;12.258;2023-04-25T05:45:24;8.90;;;4.50;;
1679;SDS011;838;51.794;12.258;2023-04-25T05:47:50;8.63;;;4.00;;
1679;SDS011;838;51.794;12.258;2023-04-25T05:50:15;5.40;;;4.00;;
1679;SDS011;838;51.794;12.258;2023-04-25T05:52:41;8.70;;;4.30;;
1679;SDS011;838;51.794;12.258;2023-04-25T05:55:07;9.10;;;4.43;;
1679;SDS011;838;51.794;12.258;2023-04-25T05:57:33;7.57;;;4.30;;
1679;SDS011;838;51.794;12.258;2023-04-25T05:59:59;8.87;;;4.20;;
1679;SDS011;838;51.794;12.258;2023-04-25T06:02:25;6.53;;;4.40;;
1679;SDS011;838;51.794;12.258;2023-04-25T06:04:51;8.20;;;4.70;;
1679;SDS011;838;51.794;12.258;2023-04-25T06:07:17;8.87;;;4.97;;
1679;SDS011;838;51.794;12.258;2023-04-25T06:09:46;6.60;;;4.47;;
1679;SDS011;838;51.794;12.258;2023-04-25T06:12:12;7.77;;;4.07;;
1679;SDS011;838;51.794;12.258;2023-04-25T06:14:37;10.23;;;5.20;;
1679;SDS011;838;51.794;12.258;2023-04-25T06:17:03;6.27;;;4.93;;
1679;SDS011;838;51.794;12.258;2023-04-25T06:19:33;9.93;;;7.37;;
1679;SDS011;838;51.794;12.258;2023-04-25T06:22:00;9.93;;;6.87;;
1679;SDS011;838;51.794;12.258;2023-04-25T06:24:26;7.83;;;5.47;;
1679;SDS011;838;51.794;12.258;2023-04-25T06:26:52;8.10;;;4.97;;
1679;SDS011;838;51.794;12.258;2023-04-25T06:29:17;8.43;;;5.20;;
1679;SDS011;838;51.794;12.258;2023-04-25T06:31:43;11.97;;;4.90;;
1679;SDS011;838;51.794;12.258;2023-04-25T06:34:09;8.60;;;5.00;;
1679;SDS011;838;51.794;12.258;2023-04-25T06:36:35;6.47;;;5.20;;
1679;SDS011;838;51.794;12.258;2023-04-25T06:39:01;7.57;;;4.50;;
1679;SDS011;838;51.794;12.258;2023-04-25T06:41:27;8.53;;;4.87;;
1679;SDS011;838;51.794;12.258;2023-04-25T06:43:52;8.43;;;4.87;;
1679;SDS011;838;51.794;12.258;2023-04-25T06:46:18;5.80;;;4.50;;
1679;SDS011;838;51.794;12.258;2023-04-25T06:48:44;9.70;;;5.30;;
1679;SDS011;838;51.794;12.258;2023-04-25T06:51:10;8.23;;;5.17;;
1679;SDS011;838;51.794;12.258;2023-04-25T06:53:36;7.40;;;5.93;;
1679;SDS011;838;51.794;12.258;2023-04-25T06:56:01;8.50;;;5.77;;
1679;SDS011;838;51.794;12.258;2023-04-25T06:58:28;8.00;;;5.10;;
1679;SDS011;838;51.794;12.258;2023-04-25T07:00:53;15.13;;;5.40;;
1679;SDS011;838;51.794;12.258;2023-04-25T07:03:20;11.20;;;5.47;;
1679;SDS011;838;51.794;12.258;2023-04-25T07:05:46;8.37;;;6.20;;
1679;SDS011;838;51.794;12.258;2023-04-25T07:08:12;8.70;;;5.43;;
1679;SDS011;838;51.794;12.258;2023-04-25T07:10:37;7.87;;;4.83;;
1679;SDS011;838;51.794;12.258;2023-04-25T07:13:03;9.43;;;5.43;;
1679;SDS011;838;51.794;12.258;2023-04-25T07:15:29;12.27;;;4.80;;
1679;SDS011;838;51.794;12.258;2023-04-25T07:17:55;8.33;;;5.93;;
1679;SDS011;838;51.794;12.258;2023-04-25T07:20:20;8.13;;;4.90;;
1679;SDS011;838;51.794;12.258;2023-04-25T07:22:46;6.97;;;4.80;;
1679;SDS011;838;51.794;12.258;2023-04-25T07:25:12;12.60;;;6.03;;
1679;SDS011;838;51.794;12.258;2023-04-25T07:27:38;7.07;;;5.10;;
1679;SDS011;838;51.794;12.258;2023-04-25T07:30:04;10.67;;;4.80;;
1679;SDS011;838;51.794;12.258;2023-04-25T07:32:31;5.50;;;3.80;;
1679;SDS011;838;51.794;12.258;2023-04-25T07:34:57;5.90;;;3.40;;
1679;SDS011;838;51.794;12.258;2023-04-25T07:37:22;11.00;;;4.20;;
1679;SDS011;838;51.794;12.258;2023-04-25T07:39:48;10.70;;;3.97;;
1679;SDS011;838;51.794;12.258;2023-04-25T07:42:14;8.13;;;4.00;;
1679;SDS011;838;51.794;12.258;2023-04-25T07:44:39;9.33;;;4.53;;
1679;SDS011;838;51.794;12.258;2023-04-25T07:47:07;16.37;;;4.47;;
1679;SDS011;838;51.794;12.258;2023-04-25T07:49:36;9.53;;;3.70;;
1679;SDS011;838;51.794;12.258;2023-04-25T07:52:03;9.23;;;3.90;;
1679;SDS011;838;51.794;12.258;2023-04-25T07:54:30;9.10;;;3.67;;
1679;SDS011;838;51.794;12.258;2023-04-25T07:56:56;12.80;;;4.40;;
1679;SDS011;838;51.794;12.258;2023-04-25T07:59:21;11.77;;;3.20;;
1679;SDS011;838;51.794;12.258;2023-04-25T08:01:48;10.50;;;3.40;;
1679;SDS011;838;51.794;12.258;2023-04-25T08:04:13;10.23;;;3.67;;
1679;SDS011;838;51.794;12.258;2023-04-25T08:06:39;10.07;;;3.30;;
1679;SDS011;838;51.794;12.258;2023-04-25T08:09:05;9.27;;;3.87;;
1679;SDS011;838;51.794;12.258;2023-04-25T08:11:33;8.83;;;3.27;;
1679;SDS011;838;51.794;12.258;2023-04-25T08:13:59;9.27;;;3.83;;
1679;SDS011;838;51.794;12.258;2023-04-25T08:16:25;10.60;;;4.10;;
1679;SDS011;838;51.794;12.258;2023-04-25T08:18:51;13.80;;;4.00;;
1679;SDS011;838;51.794;12.258;2023-04-25T08:21:16;11.30;;;3.70;;
1679;SDS011;838;51.794;12.258;2023-04-25T08:23:42;10.47;;;3.70;;
1679;SDS011;838;51.794;12.258;2023-04-25T08:26:08;8.80;;;3.80;;
1679;SDS011;838;51.794;12.258;2023-04-25T08:28:33;11.97;;;4.50;;
1679;SDS011;838;51.794;12.258;2023-04-25T08:30:59;14.30;;;4.10;;
1679;SDS011;838;51.794;12.258;2023-04-25T08:33:25;10.40;;;4.67;;
1679;SDS011;838;51.794;12.258;2023-04-25T08:35:51;13.83;;;4.70;;
1679;SDS011;838;51.794;12.258;2023-04-25T08:38:17;12.63;;;4.50;;
1679;SDS011;838;51.794;12.258;2023-04-25T08:40:43;11.20;;;4.00;;
1679;SDS011;838;51.794;12.258;2023-04-25T08:43:09;14.60;;;4.80;;
1679;SDS011;838;51.794;12.258;2023-04-25T08:45:39;11.50;;;3.50;;
1679;SDS011;838;51.794;12.258;2023-04-25T08:48:11;14.57;;;3.93;;
1679;SDS011;838;51.794;12.258;2023-04-25T08:50:54;12.17;;;3.93;;
1679;SDS011;838;51.794;12.258;2023-04-25T08:53:21;10.23;;;3.60;;
1679;SDS011;838;51.794;12.258;2023-04-25T08:55:50;10.47;;;3.70;;
1679;SDS011;838;51.794;12.258;2023-04-25T08:58:18;6.73;;;3.70;;
1679;SDS011;838;51.794;12.258;2023-04-25T09:00:45;8.10;;;3.80;;
1679;SDS011;838;51.794;12.258;2023-04-25T09:03:11;11.50;;;3.90;;
1679;SDS011;838;51.794;12.258;2023-04-25T09:05:38;12.90;;;4.60;;
1679;SDS011;838;51.794;12.258;2023-04-25T09:08:05;13.70;;;3.93;;
1679;SDS011;838;51.794;12.258;2023-04-25T09:10:32;9.97;;;3.87;;
1679;SDS011;838;51.794;12.258;2023-04-25T09:13:24;9.40;;;6.13;;
1679;SDS011;838;51.794;12.258;2023-04-25T09:15:57;11.13;;;3.70;;
1679;SDS011;838;51.794;12.258;2023-04-25T09:20:51;11.47;;;5.03;;
1679;SDS011;838;51.794;12.258;2023-04-25T09:23:18;7.63;;;3.43;;
1679;SDS011;838;51.794;12.258;2023-04-25T09:25:47;9.40;;;3.50;;
1679;SDS011;838;51.794;12.258;2023-04-25T09:28:13;9.07;;;3.73;;
1679;SDS011;838;51.794;12.258;2023-04-25T09:30:39;10.30;;;3.73;;
1679;SDS011;838;51.794;12.258;2023-04-25T09:33:11;9.40;;;3.70;;
1679;SDS011;838;51.794;12.258;2023-04-25T09:35:38;9.13;;;2.90;;
1679;SDS011;838;51.794;12.258;2023-04-25T09:38:12;11.40;;;3.70;;
1679;SDS011;838;51.794;12.258;2023-04-25T09:40:42;10.93;;;3.43;;
1679;SDS011;838;51.794;12.258;2023-04-25T09:43:18;10.27;;;3.30;;
1679;SDS011;838;51.794;12.258;2023-04-25T09:45:47;7.97;;;3.03;;
1679;SDS011;838;51.794;12.258;2023-04-25T09:48:18;10.23;;;2.87;;
1679;SDS011;838;51.794;12.258;2023-04-25T09:50:45;11.60;;;3.40;;
1679;SDS011;838;51.794;12.258;2023-04-25T09:53:30;8.87;;;4.13;;
1679;SDS011;838;51.794;12.258;2023-04-25T09:55:57;14.27;;;3.13;;
1679;SDS011;838;51.794;12.258;2023-04-25T09:58:25;7.50;;;3.53;;
1679;SDS011;838;51.794;12.258;2023-04-25T10:00:53;8.03;;;3.60;;
1679;SDS011;838;51.794;12.258;2023-04-25T10:03:24;5.57;;;2.77;;
1679;SDS011;838;51.794;12.258;2023-04-25T10:05:54;10.67;;;3.50;;
1679;SDS011;838;51.794;12.258;2023-04-25T10:08:24;9.27;;;3.70;;
1679;SDS011;838;51.794;12.258;2023-04-25T10:10:51;11.60;;;3.70;;
1679;SDS011;838;51.794;12.258;2023-04-25T10:13:17;9.67;;;3.63;;
1679;SDS011;838;51.794;12.258;2023-04-25T10:15:44;9.57;;;4.17;;
1679;SDS011;838;51.794;12.258;2023-04-25T10:18:12;11.60;;;4.10;;
1679;SDS011;838;51.794;12.258;2023-04-25T10:20:37;9.93;;;4.40;;
1679;SDS011;838;51.794;12.258;2023-04-25T10:23:06;11.23;;;4.90;;
1679;SDS011;838;51.794;12.258;2023-04-25T10:25:40;14.10;;;4.10;;
1679;SDS011;838;51.794;12.258;2023-04-25T10:28:07;10.10;;;5.03;;
1679;SDS011;838;51.794;12.258;2023-04-25T10:30:33;11.90;;;3.97;;
1679;SDS011;838;51.794;12.258;2023-04-25T10:32:59;10.00;;;3.90;;
1679;SDS011;838;51.794;12.258;2023-04-25T10:35:26;11.40;;;4.43;;
1679;SDS011;838;51.794;12.258;2023-04-25T10:38:00;8.70;;;3.70;;
1679;SDS011;838;51.794;12.258;2023-04-25T10:40:30;9.83;;;4.07;;
1679;SDS011;838;51.794;12.258;2023-04-25T10:45:56;11.37;;;3.67;;
1679;SDS011;838;51.794;12.258;2023-04-25T10:48:25;9.20;;;3.53;;
1679;SDS011;838;51.794;12.258;2023-04-25T10:51:11;8.17;;;3.90;;
1679;SDS011;838;51.794;12.258;2023-04-25T10:53:40;6.40;;;3.30;;
1679;SDS011;838;51.794;12.258;2023-04-25T10:58:41;11.10;;;3.40;;
1679;SDS011;838;51.794;12.258;2023-04-25T11:01:08;8.50;;;3.20;;
1679;SDS011;838;51.794;12.258;2023-04-25T11:03:37;11.20;;;3.47;;
1679;SDS011;838;51.794;12.258;2023-04-25T11:06:06;6.90;;;3.07;;
1679;SDS011;838;51.794;12.258;2023-04-25T11:08:48;5.10;;;2.80;;
1679;SDS011;838;51.794;12.258;2023-04-25T11:11:16;6.93;;;2.97;;
1679;SDS011;838;51.794;12.258;2023-04-25T11:13:43;6.83;;;3.07;;
1679;SDS011;838;51.794;12.258;2023-04-25T11:16:08;5.10;;;3.43;;
1679;SDS011;838;51.794;12.258;2023-04-25T11:18:34;6.13;;;3.40;;
1679;SDS011;838;51.794;12.258;2023-04-25T11:21:00;5.40;;;3.23;;
1679;SDS011;838;51.794;12.258;2023-04-25T11:23:27;8.63;;;3.37;;
1679;SDS011;838;51.794;12.258;2023-04-25T11:25:55;10.93;;;3.70;;
1679;SDS011;838;51.794;12.258;2023-04-25T11:28:21;8.07;;;3.30;;
1679;SDS011;838;51.794;12.258;2023-04-25T11:30:50;4.83;;;2.80;;
1679;SDS011;838;51.794;12.258;2023-04-25T11:33:16;6.97;;;2.93;;
1679;SDS011;838;51.794;12.258;2023-04-25T11:35:42;6.00;;;3.43;;
1679;SDS011;838;51.794;12.258;2023-04-25T11:38:08;5.43;;;3.03;;
1679;SDS011;838;51.794;12.258;2023-04-25T11:40:35;6.07;;;2.70;;
1679;SDS011;838;51.794;12.258;2023-04-25T11:43:01;3.77;;;2.30;;
1679;SDS011;838;51.794;12.258;2023-04-25T11:45:27;6.17;;;2.80;;
1679;SDS011;838;51.794;12.258;2023-04-25T11:47:54;5.00;;;2.73;;
1679;SDS011;838;51.794;12.258;2023-04-25T11:50:20;8.13;;;3.00;;
1679;SDS011;838;51.794;12.258;2023-04-25T11:52:46;5.53;;;2.30;;
1679;SDS011;838;51.794;12.258;2023-04-25T11:55:16;4.10;;;2.40;;
1679;SDS011;838;51.794;12.258;2023-04-25T11:57:45;4.90;;;3.00;;
1679;SDS011;838;51.794;12.258;2023-04-25T12:00:15;6.40;;;2.50;;
1679;SDS011;838;51.794;12.258;2023-04-25T12:02:46;7.40;;;2.40;;
1679;SDS011;838;51.794;12.258;2023-04-25T12:05:15;7.87;;;2.33;;
1679;SDS011;838;51.794;12.258;2023-04-25T12:07:41;5.10;;;2.40;;
1679;SDS011;838;51.794;12.258;2023-04-25T12:10:11;6.17;;;2.10;;
1679;SDS011;838;51.794;12.258;2023-04-25T12:12:42;4.70;;;2.50;;
1679;SDS011;838;51.794;12.258;2023-04-25T12:17:36;5.37;;;2.50;;
1679;SDS011;838;51.794;12.258;2023-04-25T12:20:07;7.53;;;2.40;;
1679;SDS011;838;51.794;12.258;2023-04-25T12:22:33;5.83;;;2.87;;
1679;SDS011;838;51.794;12.258;2023-04-25T12:24:59;4.17;;;2.57;;
1679;SDS011;838;51.794;12.258;2023-04-25T12:27:25;6.57;;;3.47;;
1679;SDS011;838;51.794;12.258;2023-04-25T12:29:53;9.77;;;3.37;;
1679;SDS011;838;51.794;12.258;2023-04-25T12:32:20;4.23;;;2.40;;
1679;SDS011;838;51.794;12.258;2023-04-25T12:34:46;5.10;;;2.80;;
1679;SDS011;838;51.794;12.258;2023-04-25T12:37:12;5.07;;;2.43;;
1679;SDS011;838;51.794;12.258;2023-04-25T12:39:38;7.23;;;2.67;;
1679;SDS011;838;51.794;12.258;2023-04-25T12:42:04;5.97;;;2.13;;
1679;SDS011;838;51.794;12.258;2023-04-25T12:44:32;7.20;;;3.53;;
1679;SDS011;838;51.794;12.258;2023-04-25T12:46:58;4.30;;;1.93;;
1679;SDS011;838;51.794;12.258;2023-04-25T12:49:25;6.20;;;2.97;;
1679;SDS011;838;51.794;12.258;2023-04-25T12:51:50;7.83;;;2.00;;
1679;SDS011;838;51.794;12.258;2023-04-25T12:54:16;6.00;;;2.67;;
1679;SDS011;838;51.794;12.258;2023-04-25T12:56:42;10.73;;;4.23;;
1679;SDS011;838;51.794;12.258;2023-04-25T12:59:08;5.83;;;2.57;;
1679;SDS011;838;51.794;12.258;2023-04-25T13:01:34;6.40;;;2.57;;
1679;SDS011;838;51.794;12.258;2023-04-25T13:04:00;6.27;;;2.70;;
1679;SDS011;838;51.794;12.258;2023-04-25T13:06:26;5.83;;;1.97;;
1679;SDS011;838;51.794;12.258;2023-04-25T13:08:52;4.47;;;2.33;;
1679;SDS011;838;51.794;12.258;2023-04-25T13:11:18;5.43;;;2.47;;
1679;SDS011;838;51.794;12.258;2023-04-25T13:13:43;4.27;;;2.50;;
1679;SDS011;838;51.794;12.258;2023-04-25T13:16:09;6.97;;;2.50;;
1679;SDS011;838;51.794;12.258;2023-04-25T13:18:36;6.60;;;2.80;;
1679;SDS011;838;51.794;12.258;2023-04-25T13:21:02;6.10;;;3.33;;
1679;SDS011;838;51.794;12.258;2023-04-25T13:23:28;5.60;;;3.07;;
1679;SDS011;838;51.794;12.258;2023-04-25T13:25:55;7.30;;;2.77;;
1679;SDS011;838;51.794;12.258;2023-04-25T13:28:24;5.80;;;2.90;;
1679;SDS011;838;51.794;12.258;2023-04-25T13:30:50;4.33;;;2.20;;
1679;SDS011;838;51.794;12.258;2023-04-25T13:33:16;13.20;;;3.17;;
1679;SDS011;838;51.794;12.258;2023-04-25T13:35:43;5.13;;;2.33;;
1679;SDS011;838;51.794;12.258;2023-04-25T13:38:11;4.87;;;2.40;;
1679;SDS011;838;51.794;12.258;2023-04-25T13:40:38;6.43;;;2.40;;
1679;SDS011;838;51.794;12.258;2023-04-25T13:43:04;4.70;;;2.53;;
1679;SDS011;838;51.794;12.258;2023-04-25T13:45:31;8.83;;;3.17;;
1679;SDS011;838;51.794;12.258;2023-04-25T13:47:57;5.97;;;2.97;;
1679;SDS011;838;51.794;12.258;2023-04-25T13:50:22;6.03;;;2.77;;
1679;SDS011;838;51.794;12.258;2023-04-25T13:52:48;10.60;;;3.83;;
1679;SDS011;838;51.794;12.258;2023-04-25T13:55:14;5.93;;;3.10;;
1679;SDS011;838;51.794;12.258;2023-04-25T13:57:40;4.27;;;2.50;;
1679;SDS011;838;51.794;12.258;2023-04-25T14:00:06;6.63;;;2.73;;
1679;SDS011;838;51.794;12.258;2023-04-25T14:02:36;5.57;;;2.67;;
1679;SDS011;838;51.794;12.258;2023-04-25T14:05:05;6.27;;;2.40;;
1679;SDS011;838;51.794;12.258;2023-04-25T14:07:33;5.27;;;2.90;;
1679;SDS011;838;51.794;12.258;2023-04-25T14:10:00;8.43;;;2.97;;
1679;SDS011;838;51.794;12.258;2023-04-25T14:12:26;8.93;;;2.30;;
1679;SDS011;838;51.794;12.258;2023-04-25T14:14:51;4.00;;;2.20;;
1679;SDS011;838;51.794;12.258;2023-04-25T14:17:18;8.53;;;2.57;;
1679;SDS011;838;51.794;12.258;2023-04-25T14:19:44;9.40;;;3.90;;
1679;SDS011;838;51.794;12.258;2023-04-25T14:22:13;5.20;;;2.27;;
1679;SDS011;838;51.794;12.258;2023-04-25T14:24:40;4.10;;;2.10;;
1679;SDS011;838;51.794;12.258;2023-04-25T14:27:06;7.20;;;2.83;;
1679;SDS011;838;51.794;12.258;2023-04-25T14:29:32;5.70;;;2.50;;
1679;SDS011;838;51.794;12.258;2023-04-25T14:31:58;6.40;;;2.70;;
1679;SDS011;838;51.794;12.258;2023-04-25T14:34:24;5.57;;;2.97;;
1679;SDS011;838;51.794;12.258;2023-04-25T14:36:50;6.33;;;2.70;;
1679;SDS011;838;51.794;12.258;2023-04-25T14:39:16;5.17;;;2.47;;
1679;SDS011;838;51.794;12.258;2023-04-25T14:41:43;4.27;;;2.10;;
1679;SDS011;838;51.794;12.258;2023-04-25T14:44:09;7.63;;;2.70;;
1679;SDS011;838;51.794;12.258;2023-04-25T14:46:35;6.93;;;2.70;;
1679;SDS011;838;51.794;12.258;2023-04-25T14:49:01;7.77;;;3.13;;
1679;SDS011;838;51.794;12.258;2023-04-25T14:51:28;5.90;;;2.43;;
1679;SDS011;838;51.794;12.258;2023-04-25T14:53:54;5.83;;;2.57;;
1679;SDS011;838;51.794;12.258;2023-04-25T14:56:20;5.60;;;2.50;;
1679;SDS011;838;51.794;12.258;2023-04-25T14:58:46;5.00;;;2.70;;
1679;SDS011;838;51.794;12.258;2023-04-25T15:01:13;5.87;;;2.23;;
1679;SDS011;838;51.794;12.258;2023-04-25T15:03:40;7.00;;;2.73;;
1679;SDS011;838;51.794;12.258;2023-04-25T15:06:06;7.10;;;2.50;;
1679;SDS011;838;51.794;12.258;2023-04-25T15:08:31;6.90;;;2.47;;
1679;SDS011;838;51.794;12.258;2023-04-25T15:10:58;6.47;;;2.77;;
1679;SDS011;838;51.794;12.258;2023-04-25T15:13:23;5.20;;;1.93;;
1679;SDS011;838;51.794;12.258;2023-04-25T15:15:50;7.13;;;2.37;;
1679;SDS011;838;51.794;12.258;2023-04-25T15:18:17;4.23;;;1.80;;
1679;SDS011;838;51.794;12.258;2023-04-25T15:20:46;6.30;;;2.50;;